Time;durP1;ratioP1;P1;durP2;ratioP2;P2;SDS_P1;SDS_P2;PMS_P1;PMS_P2;Temp;Humidity;BMP_temperature;BMP_pressure;BME280_temperature;BME280_humidity;BME280_pressure;Samples;Min_cycle;Max_cycle;Signal;HPM_P1;HPM_P2
2023/07/15 00:02:01;;;;;;;2.08;1.10;;;;;;;30.01;30.46;100239.59;5051306;28;20039;-62
2023/07/15 00:04:29;;;;;;;2.83;0.93;;;;;;;30.02;30.35;100242.06;5050748;28;20116;-61
2023/07/15 00:06:54;;;;;;;4.03;1.20;;;;;;;30.00;31.19;100232.41;5050947;28;20043;-61
2023/07/15 00:09:26;;;;;;;5.72;1.05;;;;;;;29.99;30.33;100237.09;5050789;28;20112;-61
2023/07/15 00:11:51;;;;;;;4.55;1.00;;;;;;;29.98;30.65;100231.84;5051986;28;20508;-61
2023/07/15 00:14:21;;;;;;;2.95;0.90;;;;;;;29.98;30.68;100240.94;5051989;28;20184;-61
2023/07/15 00:16:46;;;;;;;1.63;1.00;;;;;;;29.97;30.70;100238.47;5052377;28;20171;-61
2023/07/15 00:19:33;;;;;;;4.78;1.00;;;;;;;29.94;30.73;100227.94;5054305;28;20033;-61
2023/07/15 00:21:58;;;;;;;0.88;0.75;;;;;;;29.94;30.31;100227.94;5055496;28;20036;-61
2023/07/15 00:24:23;;;;;;;1.30;0.88;;;;;;;29.92;30.40;100224.63;5054444;28;20115;-62
2023/07/15 00:26:49;;;;;;;2.20;0.90;;;;;;;29.93;30.38;100226.28;5037524;28;20112;-62
2023/07/15 00:29:16;;;;;;;2.45;0.77;;;;;;;29.89;30.30;100220.47;5056008;28;20044;-61
2023/07/15 00:31:43;;;;;;;3.13;0.95;;;;;;;29.89;30.11;100222.41;5055288;28;20052;-61
2023/07/15 00:34:10;;;;;;;1.10;0.73;;;;;;;29.87;30.37;100214.38;5054194;28;20037;-62
2023/07/15 00:36:36;;;;;;;3.20;0.70;;;;;;;29.86;30.14;100222.94;5055505;28;20098;-61
2023/07/15 00:39:04;;;;;;;3.85;1.02;;;;;;;29.86;30.03;100211.91;5054114;28;20025;-61
2023/07/15 00:41:32;;;;;;;2.85;0.85;;;;;;;29.84;30.99;100217.72;5055200;28;20033;-61
2023/07/15 00:44:03;;;;;;;1.45;0.90;;;;;;;29.86;29.77;100214.66;5055185;28;20128;-61
2023/07/15 00:46:31;;;;;;;3.88;1.00;;;;;;;29.86;30.08;100209.13;5055103;28;20033;-61
2023/07/15 00:49:09;;;;;;;1.92;1.33;;;;;;;29.86;30.53;100220.19;5053804;28;20119;-61
2023/07/15 00:51:39;;;;;;;1.30;1.00;;;;;;;29.84;30.23;100211.34;5053867;28;20163;-61
2023/07/15 00:54:06;;;;;;;2.08;0.90;;;;;;;29.84;30.54;100217.72;5053910;28;20040;-61
2023/07/15 00:56:33;;;;;;;2.42;1.15;;;;;;;29.84;30.60;100217.72;5053823;28;20033;-61
2023/07/15 00:58:59;;;;;;;4.18;0.90;;;;;;;29.89;29.91;100219.66;5053668;28;20037;-61
2023/07/15 01:01:25;;;;;;;1.13;0.65;;;;;;;29.88;30.50;100213.28;5053687;28;20033;-61
2023/07/15 01:03:50;;;;;;;1.27;0.70;;;;;;;29.96;30.22;100217.44;5053045;28;20052;-63
2023/07/15 01:06:16;;;;;;;2.53;0.85;;;;;;;29.99;29.77;100214.16;5036752;28;20112;-62
2023/07/15 01:08:41;;;;;;;6.30;1.20;;;;;;;30.04;29.89;100205.88;5036703;28;20502;-61
2023/07/15 01:11:07;;;;;;;1.00;0.70;;;;;;;30.06;30.04;100208.38;5053228;28;20488;-62
2023/07/15 01:13:35;;;;;;;1.58;0.93;;;;;;;30.10;30.21;100215.84;5053304;28;20029;-62
2023/07/15 01:16:00;;;;;;;2.78;0.80;;;;;;;30.11;30.09;100211.16;5036540;28;20396;-61
2023/07/15 01:18:27;;;;;;;2.88;0.98;;;;;;;30.15;30.31;100213.06;5036553;28;20032;-61
2023/07/15 01:20:53;;;;;;;2.08;0.70;;;;;;;30.15;29.84;100209.50;5053340;28;20392;-62
2023/07/15 01:23:18;;;;;;;3.60;0.95;;;;;;;30.20;29.96;100204.81;5015810;28;20029;-61
2023/07/15 01:25:43;;;;;;;4.88;1.45;;;;;;;30.24;30.34;100208.69;5000302;28;20104;-61
2023/07/15 01:28:09;;;;;;;6.50;0.80;;;;;;;30.28;30.18;100214.50;5016246;28;20068;-62
2023/07/15 01:30:35;;;;;;;3.53;1.05;;;;;;;30.33;30.33;100206.22;5033050;28;20120;-61
2023/07/15 01:33:00;;;;;;;4.38;1.00;;;;;;;30.33;30.26;100198.75;5034130;28;20091;-61
2023/07/15 01:35:25;;;;;;;3.65;1.52;;;;;;;30.40;30.11;100204.06;5034353;28;20436;-61
2023/07/15 01:37:51;;;;;;;1.98;0.88;;;;;;;30.42;30.22;100202.69;5032962;28;20389;-61
2023/07/15 01:40:17;;;;;;;1.77;1.00;;;;;;;30.46;30.08;100212.06;5016565;28;20074;-62
2023/07/15 01:42:42;;;;;;;2.95;1.10;;;;;;;30.52;30.01;100207.38;5000293;28;20064;-62
2023/07/15 01:45:11;;;;;;;2.05;0.90;;;;;;;30.53;29.84;100204.34;5032961;28;20100;-62
2023/07/15 01:47:37;;;;;;;5.15;0.85;;;;;;;30.61;29.67;100210.41;5017224;28;20116;-62
2023/07/15 01:50:05;;;;;;;1.48;1.00;;;;;;;30.65;29.77;100204.09;5033092;28;20034;-62
2023/07/15 01:52:31;;;;;;;3.97;1.65;;;;;;;30.70;29.63;100206.00;5033464;28;20053;-61
2023/07/15 01:54:56;;;;;;;1.98;0.90;;;;;;;30.74;29.64;100198.81;5020183;28;20030;-62
2023/07/15 01:57:22;;;;;;;2.40;1.10;;;;;;;30.79;29.83;100201.59;5021585;28;20113;-61
2023/07/15 01:59:47;;;;;;;2.70;1.10;;;;;;;30.82;29.73;100199.06;5041163;28;20044;-62
2023/07/15 02:02:13;;;;;;;3.95;0.90;;;;;;;30.84;29.90;100205.19;5039554;28;20049;-62
2023/07/15 02:04:38;;;;;;;3.67;1.10;;;;;;;30.87;29.36;100201.03;5059527;28;20029;-62
2023/07/15 02:07:04;;;;;;;7.70;1.27;;;;;;;30.87;29.42;100210.16;5039257;28;20025;-61
2023/07/15 02:09:29;;;;;;;4.32;1.10;;;;;;;30.88;29.68;100205.44;5037322;28;20036;-62
2023/07/15 02:11:55;;;;;;;0.93;0.90;;;;;;;30.87;29.31;100199.09;5046938;28;20037;-61
2023/07/15 02:14:21;;;;;;;2.63;0.80;;;;;;;30.91;29.45;100199.34;5056002;28;20044;-62
2023/07/15 02:16:46;;;;;;;5.97;1.23;;;;;;;30.90;29.38;100200.47;5055059;28;20078;-62
2023/07/15 02:19:12;;;;;;;2.05;0.73;;;;;;;30.93;29.72;100205.47;5038402;28;20549;-62
2023/07/15 02:21:37;;;;;;;3.33;0.95;;;;;;;30.93;29.43;100205.47;5035514;28;20516;-62
2023/07/15 02:24:03;;;;;;;3.30;1.08;;;;;;;30.92;29.34;100196.34;5032771;28;20033;-62
2023/07/15 02:26:29;;;;;;;4.32;1.00;;;;;;;30.91;29.61;100193.81;5032717;28;20030;-62
2023/07/15 02:28:57;;;;;;;0.75;0.70;;;;;;;30.91;28.93;100199.34;5016086;28;20110;-62
2023/07/15 02:31:23;;;;;;;1.73;1.00;;;;;;;30.93;29.73;100194.41;5034051;28;20040;-61
2023/07/15 02:33:48;;;;;;;3.75;1.00;;;;;;;30.89;29.31;100187.72;5033447;28;20033;-62
2023/07/15 02:36:15;;;;;;;1.90;0.85;;;;;;;30.90;29.33;100197.72;5032128;28;20125;-62
2023/07/15 02:38:40;;;;;;;4.78;1.00;;;;;;;30.89;29.27;100198.81;5015646;28;20339;-62
2023/07/15 02:41:06;;;;;;;5.85;0.85;;;;;;;30.83;29.61;100202.66;5031675;28;20508;-62
2023/07/15 02:43:31;;;;;;;2.70;1.15;;;;;;;30.84;29.03;100198.81;5015544;28;20117;-61
2023/07/15 02:45:57;;;;;;;2.70;1.00;;;;;;;30.81;29.24;100199.38;5033284;28;20481;-62
2023/07/15 02:48:22;;;;;;;2.47;0.70;;;;;;;30.77;29.33;100193.53;5032057;28;20040;-62
2023/07/15 02:50:56;;;;;;;2.20;1.15;;;;;;;30.72;29.54;100189.94;5033220;28;20083;-61
2023/07/15 02:53:22;;;;;;;4.07;1.17;;;;;;;30.75;29.51;100198.53;5015686;28;20381;-61
2023/07/15 02:55:49;;;;;;;2.92;0.95;;;;;;;30.74;28.91;100193.28;5033104;28;20031;-62
2023/07/15 02:58:17;;;;;;;3.97;0.98;;;;;;;30.73;29.42;100195.22;5031508;28;20045;-62
2023/07/15 03:00:42;;;;;;;3.35;0.80;;;;;;;30.71;29.43;100194.66;5031589;28;20030;-62
2023/07/15 03:03:09;;;;;;;3.60;0.98;;;;;;;30.69;29.63;100202.41;5031649;28;20121;-61
2023/07/15 03:05:35;;;;;;;1.70;0.85;;;;;;;30.64;29.86;100199.66;5031601;28;20072;-61
2023/07/15 03:08:00;;;;;;;3.10;0.90;;;;;;;30.63;29.50;100197.16;5031505;28;20107;-61
2023/07/15 03:10:26;;;;;;;5.70;1.25;;;;;;;30.61;30.43;100199.34;5031467;28;20037;-62
2023/07/15 03:12:52;;;;;;;2.38;1.00;;;;;;;30.56;29.67;100203.78;5014831;28;20037;-61
2023/07/15 03:15:17;;;;;;;3.55;1.00;;;;;;;30.53;30.02;100201.59;5031413;28;20030;-62
2023/07/15 03:17:43;;;;;;;5.55;1.13;;;;;;;30.53;30.15;100209.88;5032741;28;20396;-61
2023/07/15 03:20:30;;;;;;;2.13;0.93;;;;;;;30.53;29.94;100209.88;5031395;28;20034;-61
2023/07/15 03:22:55;;;;;;;4.57;0.90;;;;;;;30.51;30.02;100205.72;5031622;28;20069;-61
2023/07/15 03:25:22;;;;;;;5.78;1.23;;;;;;;30.49;30.04;100207.91;5031484;28;20488;-61
2023/07/15 03:27:48;;;;;;;2.28;1.02;;;;;;;30.44;30.06;100208.75;5031138;28;20466;-61
2023/07/15 03:30:13;;;;;;;5.40;1.92;;;;;;;30.41;30.02;100201.00;5027575;28;20041;-62
2023/07/15 03:32:40;;;;;;;1.75;0.82;;;;;;;30.38;30.20;100206.25;5034561;28;20045;-62
2023/07/15 03:35:08;;;;;;;1.52;0.80;;;;;;;30.37;30.22;100201.84;5034135;28;20036;-62
2023/07/15 03:37:34;;;;;;;10.05;1.20;;;;;;;30.33;30.25;100204.28;5014927;28;20037;-62
2023/07/15 03:39:59;;;;;;;2.05;0.85;;;;;;;30.33;30.23;100204.28;5014703;28;20034;-61
2023/07/15 03:42:25;;;;;;;3.72;1.10;;;;;;;30.32;30.45;100201.81;5031028;28;20029;-62
2023/07/15 03:44:51;;;;;;;5.90;0.77;;;;;;;30.28;30.61;100201.53;5026186;28;20057;-62
2023/07/15 03:47:17;;;;;;;3.55;1.10;;;;;;;30.27;30.21;100205.38;5047667;28;20033;-61
2023/07/15 03:49:43;;;;;;;2.28;0.90;;;;;;;30.26;30.37;100200.97;5030777;28;20107;-62
2023/07/15 03:52:09;;;;;;;2.05;0.90;;;;;;;30.25;30.70;100206.75;5033160;28;20081;-61
2023/07/15 03:54:34;;;;;;;2.75;1.10;;;;;;;30.22;30.50;100204.53;5034914;28;20501;-62
2023/07/15 03:57:00;;;;;;;2.55;0.80;;;;;;;30.23;31.08;100204.28;5036019;28;20045;-62
2023/07/15 03:59:26;;;;;;;2.67;1.15;;;;;;;30.24;30.32;100208.69;5035162;28;20125;-62
2023/07/15 04:01:52;;;;;;;3.78;0.95;;;;;;;30.21;31.01;100206.47;5036421;28;20034;-62
2023/07/15 04:04:17;;;;;;;8.80;1.05;;;;;;;30.19;31.12;100213.38;5034825;28;20099;-62
2023/07/15 04:06:43;;;;;;;2.25;0.88;;;;;;;30.18;30.77;100212.53;5035875;28;20140;-62
2023/07/15 04:09:11;;;;;;;6.93;1.33;;;;;;;30.15;30.64;100206.75;5018203;28;20040;-62
2023/07/15 04:11:37;;;;;;;3.63;0.95;;;;;;;30.14;31.09;100205.91;5050940;28;20507;-62
2023/07/15 04:14:02;;;;;;;2.10;0.82;;;;;;;30.14;30.69;100200.38;5034743;28;20025;-62
2023/07/15 04:16:29;;;;;;;2.70;0.70;;;;;;;30.15;30.55;100206.75;5034491;28;20029;-62
2023/07/15 04:18:54;;;;;;;1.70;0.98;;;;;;;30.17;30.88;100213.66;5034547;28;20396;-62
2023/07/15 04:21:20;;;;;;;2.83;0.77;;;;;;;30.19;30.74;100207.84;5034748;28;20029;-62
2023/07/15 04:23:46;;;;;;;2.00;1.15;;;;;;;30.18;30.52;100207.00;5034477;28;20045;-62
2023/07/15 04:26:12;;;;;;;0.70;0.52;;;;;;;30.23;30.82;100212.56;5051456;28;20117;-61
2023/07/15 04:28:37;;;;;;;2.78;0.82;;;;;;;30.27;30.90;100199.84;5038250;28;20057;-63
2023/07/15 04:31:02;;;;;;;1.17;0.40;;;;;;;30.28;30.55;100218.09;5035009;28;20570;-61
2023/07/15 04:33:28;;;;;;;1.30;1.00;;;;;;;30.30;30.15;100207.59;5050925;28;20577;-61
2023/07/15 04:35:54;;;;;;;1.80;0.95;;;;;;;30.34;30.38;100211.50;5035769;28;20045;-61
2023/07/15 04:38:22;;;;;;;2.05;0.52;;;;;;;30.42;30.60;100218.44;5034170;28;20055;-62
2023/07/15 04:40:48;;;;;;;3.50;1.17;;;;;;;30.44;30.38;100206.00;5034309;28;20089;-62
2023/07/15 04:43:13;;;;;;;3.70;0.88;;;;;;;30.51;30.38;100208.50;5034058;28;20042;-62
2023/07/15 04:45:38;;;;;;;2.13;0.70;;;;;;;30.56;30.60;100214.84;5034244;28;20033;-61
2023/07/15 04:48:04;;;;;;;4.40;0.77;;;;;;;30.63;30.46;100219.28;5051005;28;20497;-61
2023/07/15 04:50:30;;;;;;;6.57;0.85;;;;;;;30.67;29.98;100225.91;5049384;28;20386;-61
2023/07/15 04:52:56;;;;;;;4.32;1.13;;;;;;;30.72;30.37;100217.63;5035136;28;20026;-61
2023/07/15 04:55:22;;;;;;;1.90;0.80;;;;;;;30.73;30.29;100208.22;5034896;28;20038;-62
2023/07/15 04:57:48;;;;;;;1.58;0.73;;;;;;;30.80;30.67;100219.81;5050369;28;20034;-62
2023/07/15 05:00:13;;;;;;;1.27;0.63;;;;;;;30.84;30.70;100226.47;5001169;28;20447;-62
2023/07/15 05:02:41;;;;;;;1.00;0.60;;;;;;;30.91;30.46;100221.47;5035705;28;20534;-61
2023/07/15 05:05:07;;;;;;;0.93;0.73;;;;;;;30.97;30.50;100224.00;5040759;28;20128;-61
2023/07/15 05:07:33;;;;;;;2.92;1.02;;;;;;;31.02;30.74;100225.94;5034386;28;20033;-61
2023/07/15 05:09:59;;;;;;;2.95;0.80;;;;;;;31.06;30.32;100224.28;5034589;28;20033;-61
2023/07/15 05:12:26;;;;;;;1.42;0.90;;;;;;;31.12;30.09;100223.16;5033678;28;20046;-61
2023/07/15 05:14:51;;;;;;;3.38;1.05;;;;;;;31.16;30.46;100224.25;5033599;28;20041;-61
2023/07/15 05:17:17;;;;;;;3.35;0.90;;;;;;;31.24;30.06;100220.09;5021516;28;20043;-61
2023/07/15 05:19:42;;;;;;;3.00;0.90;;;;;;;31.33;30.31;100216.47;5033428;28;20025;-61
2023/07/15 05:22:07;;;;;;;1.73;1.33;;;;;;;31.45;30.28;100228.09;5034578;28;20116;-62
2023/07/15 05:24:33;;;;;;;7.32;0.93;;;;;;;31.55;29.92;100236.38;5033536;28;20042;-61
2023/07/15 05:26:59;;;;;;;2.47;1.38;;;;;;;31.67;30.34;100242.44;5033145;28;20083;-62
2023/07/15 05:29:24;;;;;;;3.25;1.20;;;;;;;31.78;30.01;100242.41;5033387;28;20095;-61
2023/07/15 05:31:51;;;;;;;5.32;1.23;;;;;;;31.90;30.25;100245.69;5000265;28;20033;-61
2023/07/15 05:34:16;;;;;;;1.38;0.70;;;;;;;31.99;30.52;100247.59;5032858;28;20042;-61
2023/07/15 05:36:42;;;;;;;4.80;1.02;;;;;;;32.05;29.61;100253.97;5043863;28;20056;-62
2023/07/15 05:39:07;;;;;;;2.15;0.98;;;;;;;32.09;30.09;100252.28;5036342;28;20453;-61
2023/07/15 05:41:32;;;;;;;3.35;0.85;;;;;;;32.11;29.48;100252.81;5053220;28;20040;-61
2023/07/15 05:43:58;;;;;;;1.88;0.75;;;;;;;32.20;30.00;100251.94;5037625;28;20057;-61
2023/07/15 05:46:24;;;;;;;1.15;0.85;;;;;;;32.30;29.67;100264.94;5033388;28;20029;-61
2023/07/15 05:48:49;;;;;;;3.42;1.05;;;;;;;32.34;30.26;100262.38;5032130;28;20068;-61
2023/07/15 05:51:14;;;;;;;3.33;1.05;;;;;;;32.46;29.22;100249.84;5032837;28;20505;-61
2023/07/15 05:53:45;;;;;;;3.53;1.00;;;;;;;32.61;29.05;100258.06;5032812;28;20046;-61
2023/07/15 05:56:10;;;;;;;1.38;0.60;;;;;;;32.64;29.66;100254.72;5033237;28;20087;-61
2023/07/15 05:58:35;;;;;;;3.28;0.85;;;;;;;32.85;29.80;100255.41;5015474;28;20033;-62
2023/07/15 06:01:01;;;;;;;6.10;0.80;;;;;;;33.04;29.79;100249.97;5032216;28;20065;-61
2023/07/15 06:03:26;;;;;;;0.90;0.80;;;;;;;33.13;29.24;100260.19;5016192;28;20034;-61
2023/07/15 06:05:52;;;;;;;5.38;1.02;;;;;;;33.26;29.31;100259.50;5036121;28;20032;-61
2023/07/15 06:08:18;;;;;;;0.90;0.68;;;;;;;33.44;29.76;100248.78;5052488;28;20467;-61
2023/07/15 06:10:43;;;;;;;5.85;1.00;;;;;;;33.55;28.80;100253.94;5052401;28;20029;-61
2023/07/15 06:13:10;;;;;;;1.15;0.80;;;;;;;33.72;28.54;100251.56;5053311;28;20040;-61
2023/07/15 06:15:36;;;;;;;3.90;0.70;;;;;;;33.74;28.51;100257.63;5050385;28;20132;-64
2023/07/15 06:18:02;;;;;;;5.13;0.82;;;;;;;33.73;28.58;100258.75;5048503;28;20017;-61
2023/07/15 06:20:27;;;;;;;2.47;0.93;;;;;;;33.95;28.51;100272.09;5051553;28;20017;-61
2023/07/15 06:22:53;;;;;;;2.42;0.60;;;;;;;34.13;28.59;100267.72;5052469;28;20052;-62
2023/07/15 06:25:18;;;;;;;3.47;0.82;;;;;;;34.34;28.26;100275.50;5052828;28;20076;-62
2023/07/15 06:27:44;;;;;;;3.65;0.70;;;;;;;34.58;28.59;100272.69;5048541;28;20012;-61
2023/07/15 06:30:09;;;;;;;1.45;0.88;;;;;;;34.74;28.39;100268.53;5018129;28;20021;-62
2023/07/15 06:32:35;;;;;;;1.08;0.45;;;;;;;34.57;28.32;100259.91;5046643;28;20132;-64
2023/07/15 06:35:01;;;;;;;1.73;0.70;;;;;;;34.40;29.06;100246.47;5033087;28;20045;-63
2023/07/15 06:37:27;;;;;;;2.95;0.60;;;;;;;34.39;28.83;100241.22;5051598;28;20053;-61
2023/07/15 06:39:52;;;;;;;3.47;1.00;;;;;;;34.48;29.28;100250.53;5051715;28;20029;-61
2023/07/15 06:42:18;;;;;;;1.45;1.25;;;;;;;34.54;28.34;100257.69;5035107;28;20524;-62
2023/07/15 06:44:43;;;;;;;1.50;0.75;;;;;;;34.68;28.86;100271.69;5051658;28;20087;-61
2023/07/15 06:47:08;;;;;;;2.03;0.70;;;;;;;34.69;28.41;100267.78;5051717;28;20439;-62
2023/07/15 06:49:34;;;;;;;4.63;0.88;;;;;;;34.60;28.70;100262.06;5051891;28;20432;-62
2023/07/15 06:51:59;;;;;;;1.50;0.90;;;;;;;34.42;29.35;100266.47;5034989;28;20074;-61
2023/07/15 06:54:24;;;;;;;5.07;0.90;;;;;;;34.31;29.50;100270.53;5051602;28;20029;-61
2023/07/15 06:56:50;;;;;;;1.85;0.70;;;;;;;34.27;28.95;100269.50;5051313;28;20043;-62
2023/07/15 06:59:15;;;;;;;1.13;0.70;;;;;;;34.05;28.76;100262.81;5051376;28;20029;-63
2023/07/15 07:01:40;;;;;;;2.38;1.00;;;;;;;33.92;30.02;100256.84;5051478;28;20035;-62
2023/07/15 07:04:06;;;;;;;9.65;1.50;;;;;;;33.78;28.86;100264.25;5051911;28;20028;-67
2023/07/15 07:06:31;;;;;;;3.65;1.00;;;;;;;33.74;29.87;100254.84;5051616;28;20112;-66
2023/07/15 07:08:57;;;;;;;2.30;0.95;;;;;;;33.67;28.93;100251.59;5051367;28;20170;-67
2023/07/15 07:11:22;;;;;;;3.85;0.85;;;;;;;33.71;29.89;100255.44;5051242;28;20029;-66
2023/07/15 07:13:49;;;;;;;6.93;0.93;;;;;;;33.76;29.44;100268.44;5034636;28;20422;-65
2023/07/15 07:16:15;;;;;;;7.20;1.77;;;;;;;33.77;28.88;100251.47;5019216;28;20466;-62
2023/07/15 07:18:41;;;;;;;1.17;0.68;;;;;;;33.73;29.29;100246.78;5034455;28;20064;-61
2023/07/15 07:21:07;;;;;;;3.25;1.00;;;;;;;33.62;29.26;100253.59;5015293;28;20485;-61
2023/07/15 07:23:32;;;;;;;2.28;1.30;;;;;;;33.56;30.20;100268.66;5034750;28;20040;-61
2023/07/15 07:25:59;;;;;;;3.25;0.90;;;;;;;33.52;30.03;100270.34;5014834;28;20112;-61
2023/07/15 07:28:44;;;;;;;3.78;1.10;;;;;;;33.41;29.51;100266.88;5035274;28;20040;-61
2023/07/15 07:31:10;;;;;;;1.98;0.82;;;;;;;33.37;29.76;100271.34;5019614;28;20033;-61
2023/07/15 07:33:36;;;;;;;2.50;0.77;;;;;;;33.37;30.06;100268.56;5035168;28;20037;-61
2023/07/15 07:36:03;;;;;;;1.58;0.85;;;;;;;33.42;29.94;100271.28;5035190;28;20037;-61
2023/07/15 07:38:28;;;;;;;1.95;0.70;;;;;;;33.63;30.10;100272.78;5035445;28;20382;-61
2023/07/15 07:40:53;;;;;;;4.22;0.98;;;;;;;33.82;29.59;100270.88;5035645;28;20030;-61
2023/07/15 07:43:19;;;;;;;2.03;0.75;;;;;;;34.04;29.18;100275.88;5036981;28;20061;-61
2023/07/15 07:45:44;;;;;;;4.28;0.77;;;;;;;34.21;29.69;100269.84;5035123;28;20493;-61
2023/07/15 07:48:09;;;;;;;4.70;1.05;;;;;;;34.49;29.52;100266.09;5036387;28;20123;-61
2023/07/15 07:50:35;;;;;;;1.15;0.88;;;;;;;35.01;29.17;100265.84;5035113;28;20038;-61
2023/07/15 07:53:00;;;;;;;3.78;1.08;;;;;;;35.00;29.19;100264.22;5035438;28;20480;-61
2023/07/15 07:55:26;;;;;;;3.13;0.88;;;;;;;35.15;28.73;100268.69;5036592;28;20037;-61
2023/07/15 07:57:51;;;;;;;3.10;0.82;;;;;;;35.07;29.20;100280.53;5034834;28;20450;-62
2023/07/15 08:00:17;;;;;;;1.23;0.85;;;;;;;35.08;29.20;100277.47;5035074;28;20025;-61
2023/07/15 08:02:42;;;;;;;1.83;0.77;;;;;;;35.12;28.96;100279.66;5034701;28;20044;-61
2023/07/15 08:05:08;;;;;;;2.58;1.48;;;;;;;35.21;29.03;100294.50;5036091;28;20378;-61
2023/07/15 08:07:34;;;;;;;3.28;1.33;;;;;;;35.23;29.21;100297.84;5035971;28;20492;-62
2023/07/15 08:09:59;;;;;;;3.25;0.98;;;;;;;35.14;29.25;100299.66;5034520;28;20034;-62
2023/07/15 08:12:25;;;;;;;2.72;0.70;;;;;;;34.98;30.07;100313.00;5018239;28;20056;-61
2023/07/15 08:14:50;;;;;;;2.65;0.65;;;;;;;34.78;29.52;100299.38;5035765;28;20060;-62
2023/07/15 08:17:16;;;;;;;2.13;0.88;;;;;;;34.68;30.15;100300.34;5035524;28;20038;-61
2023/07/15 08:19:42;;;;;;;3.08;1.23;;;;;;;34.65;29.36;100312.09;5035766;28;20032;-61
2023/07/15 08:22:07;;;;;;;5.35;1.20;;;;;;;34.67;30.34;100309.84;5035611;28;20105;-61
2023/07/15 08:24:34;;;;;;;1.05;0.85;;;;;;;34.73;29.72;100302.25;5034252;28;20436;-61
2023/07/15 08:26:59;;;;;;;4.38;1.10;;;;;;;34.57;29.90;100298.00;5035515;28;20034;-61
2023/07/15 08:29:25;;;;;;;2.42;1.02;;;;;;;34.45;30.18;100309.59;5017642;28;20045;-61
2023/07/15 08:31:50;;;;;;;2.97;1.67;;;;;;;34.39;30.04;100316.34;5035586;28;20044;-61
2023/07/15 08:34:15;;;;;;;6.50;1.10;;;;;;;34.52;29.65;100310.03;5034051;28;20049;-61
2023/07/15 08:36:41;;;;;;;3.00;0.98;;;;;;;35.06;29.74;100329.88;5034304;28;20076;-61
2023/07/15 08:39:06;;;;;;;1.40;1.00;;;;;;;35.31;29.63;100313.84;5033796;28;20028;-61
2023/07/15 08:41:32;;;;;;;1.58;0.80;;;;;;;35.18;29.50;100326.59;5035585;28;20400;-61
2023/07/15 08:43:57;;;;;;;1.20;0.80;;;;;;;35.07;30.29;100333.47;5035097;28;20447;-61
2023/07/15 08:46:28;;;;;;;1.25;0.70;;;;;;;34.87;30.64;100328.22;5035400;28;20045;-61
2023/07/15 08:48:54;;;;;;;6.20;0.80;;;;;;;34.82;30.90;100319.91;5018354;28;20041;-61
2023/07/15 08:51:21;;;;;;;3.78;0.80;;;;;;;34.68;30.83;100328.19;5033806;28;20049;-61
2023/07/15 08:53:47;;;;;;;3.80;0.93;;;;;;;34.52;31.34;100332.28;5033762;28;20034;-62
2023/07/15 08:56:14;;;;;;;2.85;0.60;;;;;;;34.54;30.46;100341.16;5033294;28;20037;-62
2023/07/15 08:58:40;;;;;;;2.30;0.60;;;;;;;34.62;30.45;100348.88;5033615;28;20091;-62
2023/07/15 09:01:05;;;;;;;1.85;0.55;;;;;;;34.60;30.90;100351.13;5033736;28;20025;-61
2023/07/15 09:03:30;;;;;;;1.00;0.77;;;;;;;34.55;31.23;100359.53;5033635;28;20037;-61
2023/07/15 09:05:56;;;;;;;1.83;0.70;;;;;;;34.61;31.41;100352.81;5017176;28;20504;-61
2023/07/15 09:08:21;;;;;;;3.20;0.50;;;;;;;34.72;31.61;100357.09;5034733;28;20037;-62
2023/07/15 09:10:57;;;;;;;1.23;0.70;;;;;;;34.90;31.01;100344.28;5016937;28;20044;-64
2023/07/15 09:13:23;;;;;;;2.65;0.63;;;;;;;34.91;31.17;100346.78;5034483;28;20032;-62
2023/07/15 09:15:48;;;;;;;2.20;0.50;;;;;;;35.12;31.69;100338.16;5035249;28;20037;-62
2023/07/15 09:18:14;;;;;;;1.20;0.70;;;;;;;35.17;31.70;100338.88;5034581;28;20041;-62
2023/07/15 09:20:40;;;;;;;1.55;0.60;;;;;;;34.97;31.55;100345.56;5053310;28;20400;-62
2023/07/15 09:23:06;;;;;;;0.68;0.30;;;;;;;34.95;32.13;100349.81;5033430;28;20037;-62
2023/07/15 09:25:31;;;;;;;0.85;0.47;;;;;;;35.25;31.58;100351.28;5016693;28;20120;-62
2023/07/15 09:27:57;;;;;;;1.45;0.43;;;;;;;35.68;31.09;100319.31;5016576;28;20409;-62
2023/07/15 09:30:23;;;;;;;1.30;0.60;;;;;;;36.41;31.02;100329.56;5034527;28;20033;-63
2023/07/15 09:32:48;;;;;;;0.90;0.70;;;;;;;36.16;31.78;100328.16;5054396;28;20045;-63
2023/07/15 09:35:14;;;;;;;0.40;0.40;;;;;;;36.08;31.14;100326.91;5019984;28;20033;-61
2023/07/15 09:37:40;;;;;;;1.15;0.85;;;;;;;35.92;31.17;100322.75;5052849;28;20055;-62
2023/07/15 09:40:07;;;;;;;0.40;0.40;;;;;;;35.69;31.79;100329.34;5036153;28;20033;-62
2023/07/15 09:42:52;;;;;;;1.45;0.70;;;;;;;35.32;32.42;100335.00;5052684;28;20067;-61
2023/07/15 09:45:34;;;;;;;1.13;0.50;;;;;;;34.98;32.34;100330.50;5053045;28;20136;-63
2023/07/15 09:48:01;;;;;;;0.38;0.38;;;;;;;34.81;32.06;100324.69;5037302;28;20103;-60
2023/07/15 09:50:27;;;;;;;2.65;0.60;;;;;;;34.86;32.11;100321.81;5052848;28;20029;-61
2023/07/15 09:52:54;;;;;;;4.28;0.70;;;;;;;34.73;32.24;100314.19;5053127;28;20039;-61
2023/07/15 09:55:22;;;;;;;3.63;0.65;;;;;;;34.72;33.27;100331.22;5032975;28;20044;-61
2023/07/15 09:57:52;;;;;;;0.70;0.50;;;;;;;34.64;32.78;100335.50;5032929;28;20404;-62
2023/07/15 10:00:18;;;;;;;1.20;0.40;;;;;;;34.45;33.00;100351.34;5032876;28;20044;-61
2023/07/15 10:02:49;;;;;;;2.38;0.55;;;;;;;34.13;33.98;100356.72;5017048;28;20060;-61
2023/07/15 10:05:14;;;;;;;2.78;0.90;;;;;;;33.88;33.34;100355.03;5032335;28;20044;-61
2023/07/15 10:07:42;;;;;;;1.98;0.63;;;;;;;33.65;34.06;100336.38;5036522;28;20049;-61
2023/07/15 10:10:08;;;;;;;1.83;0.68;;;;;;;33.63;33.70;100331.13;5016838;28;20022;-61
2023/07/15 10:12:34;;;;;;;1.05;0.57;;;;;;;33.81;33.48;100341.47;5032521;28;20056;-62
2023/07/15 10:15:00;;;;;;;0.43;0.40;;;;;;;34.34;33.24;100347.81;5016319;28;20457;-62
2023/07/15 10:17:33;;;;;;;1.42;0.63;;;;;;;34.28;34.89;100348.22;5033055;28;20039;-62
2023/07/15 10:20:17;;;;;;;2.35;0.75;;;;;;;34.21;33.74;100353.28;5033845;28;20039;-62
2023/07/15 10:22:43;;;;;;;1.10;0.40;;;;;;;34.23;34.08;100365.78;5016909;28;20108;-62
2023/07/15 10:25:10;;;;;;;0.93;0.40;;;;;;;34.17;34.12;100364.22;5032505;28;20059;-62
2023/07/15 10:27:36;;;;;;;1.42;0.50;;;;;;;34.14;34.73;100367.56;5032183;28;20037;-62
2023/07/15 10:30:24;;;;;;;1.30;0.90;;;;;;;34.64;34.20;100349.44;5033720;28;20034;-62
2023/07/15 10:32:58;;;;;;;1.13;0.57;;;;;;;34.90;33.67;100350.69;5035114;28;20049;-62
2023/07/15 10:35:25;;;;;;;2.33;0.70;;;;;;;35.65;33.29;100343.06;5034434;28;20088;-62
2023/07/15 10:37:51;;;;;;;2.42;0.57;;;;;;;35.98;33.33;100352.22;5032690;28;20087;-62
2023/07/15 10:40:49;;;;;;;1.02;0.70;;;;;;;36.50;32.56;100355.63;5032262;28;20029;-61
2023/07/15 10:43:22;;;;;;;3.85;0.60;;;;;;;36.55;32.63;100341.56;5035096;28;20033;-62
2023/07/15 10:45:55;;;;;;;5.32;0.70;;;;;;;36.65;32.75;100358.09;5032613;28;20034;-62
2023/07/15 10:48:21;;;;;;;0.90;0.70;;;;;;;37.16;32.19;100352.19;5031701;28;20087;-62
2023/07/15 10:50:48;;;;;;;1.70;1.17;;;;;;;37.97;30.94;100355.69;5033086;28;20064;-62
2023/07/15 10:53:21;;;;;;;0.68;0.47;;;;;;;37.55;31.47;100354.28;5037307;28;20032;-62
2023/07/15 10:55:53;;;;;;;1.27;0.68;;;;;;;37.62;31.26;100351.84;5042072;28;20532;-61
2023/07/15 10:58:20;;;;;;;3.13;0.68;;;;;;;37.61;31.60;100358.56;5032975;28;20052;-62
2023/07/15 11:00:45;;;;;;;2.08;1.13;;;;;;;37.22;31.66;100351.72;5033665;28;20049;-64
2023/07/15 11:03:11;;;;;;;0.82;0.60;;;;;;;37.02;31.44;100357.00;5035206;28;20037;-63
2023/07/15 11:05:36;;;;;;;0.90;0.40;;;;;;;36.81;31.92;100356.63;5052628;28;20032;-63
2023/07/15 11:08:05;;;;;;;1.15;0.75;;;;;;;36.54;31.73;100363.09;5037530;28;20029;-62
2023/07/15 11:10:33;;;;;;;2.10;0.60;;;;;;;36.38;32.08;100346.97;5055180;28;20163;-62
2023/07/15 11:13:14;;;;;;;0.88;0.88;;;;;;;36.31;31.85;100340.97;5051546;28;20100;-63
2023/07/15 11:15:43;;;;;;;1.17;0.60;;;;;;;36.19;32.60;100349.84;5051778;28;20453;-62
2023/07/15 11:18:16;;;;;;;1.33;0.60;;;;;;;36.04;32.67;100342.63;5053033;28;20072;-62
2023/07/15 11:20:44;;;;;;;4.68;0.80;;;;;;;35.81;32.96;100337.22;5048006;28;20052;-62
2023/07/15 11:23:09;;;;;;;1.45;0.70;;;;;;;35.55;32.78;100339.63;5051967;28;20049;-62